Time;durP1;ratioP1;P1;durP2;ratioP2;P2;SDS_P1;SDS_P2;PMS_P1;PMS_P2;Temp;Humidity;BMP_temperature;BMP_pressure;BME280_temperature;BME280_humidity;BME280_pressure;Samples;Min_cycle;Max_cycle;Signal;HPM_P1;HPM_P2
2022/01/23 00:02:28;;;;;;;55.60;26.53;;;;;;;;;;5076696;28;20021;-91
2022/01/23 00:04:54;;;;;;;52.27;25.13;;;;;;;;;;5075524;28;20016;-91
2022/01/23 00:07:19;;;;;;;56.93;25.87;;;;;;;;;;5075572;28;20066;-91
2022/01/23 00:09:45;;;;;;;54.47;25.80;;;;;;;;;;5075355;28;20017;-91
2022/01/23 00:12:15;;;;;;;52.77;26.43;;;;;;;;;;5075419;28;20017;-91
2022/01/23 00:17:25;;;;;;;52.63;23.83;;;;;;;;;;5077026;28;20027;-91
2022/01/23 00:19:55;;;;;;;55.63;24.53;;;;;;;;;;5075056;28;20031;-91
2022/01/23 00:22:24;;;;;;;52.37;25.37;;;;;;;;;;5074500;28;20380;-91
2022/01/23 00:30:21;;;;;;;49.70;24.60;;;;;;;;;;5076661;28;20537;-91
2022/01/23 00:32:46;;;;;;;57.50;25.50;;;;;;;;;;5074817;28;20020;-91
2022/01/23 00:35:11;;;;;;;56.10;25.37;;;;;;;;;;5074743;28;20050;-91
2022/01/23 00:37:36;;;;;;;51.57;24.83;;;;;;;;;;5075071;28;20052;-91
2022/01/23 00:40:02;;;;;;;51.60;24.47;;;;;;;;;;5074915;28;20353;-91
2022/01/23 00:42:28;;;;;;;58.73;25.37;;;;;;;;;;5074755;28;20491;-91
2022/01/23 00:45:01;;;;;;;60.37;26.23;;;;;;;;;;5075412;28;20043;-91
2022/01/23 00:47:27;;;;;;;61.90;27.73;;;;;;;;;;5074502;28;20016;-91
2022/01/23 00:49:52;;;;;;;57.53;26.13;;;;;;;;;;5074288;28;20021;-91
2022/01/23 00:52:18;;;;;;;60.20;25.37;;;;;;;;;;5074340;28;20038;-91
2022/01/23 00:54:43;;;;;;;57.67;25.90;;;;;;;;;;5074472;28;20028;-91
2022/01/23 00:57:09;;;;;;;56.20;27.60;;;;;;;;;;5074182;28;20023;-91
2022/01/23 00:59:34;;;;;;;60.97;27.53;;;;;;;;;;5074209;28;20391;-91
2022/01/23 01:01:59;;;;;;;63.40;27.87;;;;;;;;;;5074173;28;20024;-91
2022/01/23 01:04:24;;;;;;;61.70;27.37;;;;;;;;;;5074238;28;20016;-90
2022/01/23 01:06:49;;;;;;;54.93;26.03;;;;;;;;;;5074028;28;20017;-91
2022/01/23 01:09:15;;;;;;;57.00;26.50;;;;;;;;;;5074003;28;20020;-91
2022/01/23 01:14:37;;;;;;;55.07;26.20;;;;;;;;;;5075429;28;20025;-91
2022/01/23 01:17:13;;;;;;;62.63;26.17;;;;;;;;;;5073889;28;20012;-91
2022/01/23 01:30:16;;;;;;;54.53;26.10;;;;;;;;;;5075579;28;20071;-91
2022/01/23 01:36:02;;;;;;;58.60;26.47;;;;;;;;;;5074121;28;20051;-91
2022/01/23 01:38:27;;;;;;;62.17;28.20;;;;;;;;;;5073675;28;20052;-91
2022/01/23 01:40:53;;;;;;;59.03;26.13;;;;;;;;;;5073527;28;20086;-91
2022/01/23 01:43:18;;;;;;;57.67;26.67;;;;;;;;;;5073518;28;20043;-91
2022/01/23 01:45:44;;;;;;;59.83;27.83;;;;;;;;;;5073453;28;20426;-90
2022/01/23 01:48:10;;;;;;;61.47;27.77;;;;;;;;;;5073214;28;20426;-91
2022/01/23 01:50:35;;;;;;;63.40;26.33;;;;;;;;;;5073430;28;20028;-91
2022/01/23 01:53:01;;;;;;;55.50;26.43;;;;;;;;;;5073293;28;20025;-91
2022/01/23 01:55:38;;;;;;;49.30;24.47;;;;;;;;;;5073314;28;20028;-91
2022/01/23 01:58:05;;;;;;;59.47;26.73;;;;;;;;;;5073822;28;20460;-91
2022/01/23 02:08:22;;;;;;;56.00;27.00;;;;;;;;;;5074755;28;20077;-91
2022/01/23 02:10:51;;;;;;;56.97;26.17;;;;;;;;;;5073177;28;20019;-90
2022/01/23 02:13:45;;;;;;;53.57;25.53;;;;;;;;;;5060427;28;20025;-91
2022/01/23 02:24:10;;;;;;;61.40;28.73;;;;;;;;;;5054657;28;20067;-91
2022/01/23 02:56:44;;;;;;;56.30;27.03;;;;;;;;;;5057921;28;20101;-91
2022/01/23 02:59:52;;;;;;;59.23;28.57;;;;;;;;;;5056511;28;20050;-91
2022/01/23 03:04:26;;;;;;;66.67;29.67;;;;;;;;;;5057826;28;20029;-91
2022/01/23 03:30:03;;;;;;;58.60;27.50;;;;;;;;;;5056927;28;20013;-91
2022/01/23 03:32:36;;;;;;;61.23;27.60;;;;;;;;;;5055836;28;20197;-90
2022/01/23 03:35:02;;;;;;;57.17;28.30;;;;;;;;;;5055856;28;20071;-91
2022/01/23 03:37:27;;;;;;;58.17;29.63;;;;;;;;;;5055678;28;20017;-91
2022/01/23 03:39:52;;;;;;;60.20;26.97;;;;;;;;;;5055867;28;20057;-90
2022/01/23 03:42:17;;;;;;;56.67;29.10;;;;;;;;;;5055601;28;20067;-91
2022/01/23 03:44:56;;;;;;;60.40;28.17;;;;;;;;;;5055695;28;20429;-90
2022/01/23 03:47:33;;;;;;;63.50;27.07;;;;;;;;;;5055532;28;20025;-91
2022/01/23 03:49:58;;;;;;;54.53;26.37;;;;;;;;;;5055436;28;20528;-91
2022/01/23 03:52:26;;;;;;;61.73;28.10;;;;;;;;;;5055397;28;20056;-91
2022/01/23 03:54:51;;;;;;;59.43;28.67;;;;;;;;;;5055382;28;20460;-91
2022/01/23 03:57:17;;;;;;;62.13;27.50;;;;;;;;;;5054401;28;20027;-91
2022/01/23 03:59:42;;;;;;;56.40;26.67;;;;;;;;;;5056425;28;20025;-91
2022/01/23 04:02:07;;;;;;;60.83;27.73;;;;;;;;;;5055457;28;20115;-91
2022/01/23 04:04:42;;;;;;;58.67;25.60;;;;;;;;;;5055405;28;20024;-91
2022/01/23 04:07:17;;;;;;;55.77;26.87;;;;;;;;;;5055387;28;20051;-91
2022/01/23 04:09:43;;;;;;;60.77;27.90;;;;;;;;;;5055026;28;20102;-91
2022/01/23 04:12:11;;;;;;;56.63;26.13;;;;;;;;;;5055000;28;20534;-91
2022/01/23 04:14:42;;;;;;;57.27;27.00;;;;;;;;;;5055122;28;20017;-91
2022/01/23 04:33:51;;;;;;;63.40;28.07;;;;;;;;;;5056304;28;20020;-91
2022/01/23 05:01:04;;;;;;;60.23;27.80;;;;;;;;;;5055496;28;20075;-91
2022/01/23 05:06:22;;;;;;;60.17;28.23;;;;;;;;;;5055370;28;20060;-91
2022/01/23 05:08:48;;;;;;;58.00;26.50;;;;;;;;;;5053671;28;20052;-91
2022/01/23 05:11:13;;;;;;;55.80;27.20;;;;;;;;;;5053941;28;20013;-91
2022/01/23 05:13:38;;;;;;;65.67;27.60;;;;;;;;;;5053957;28;20024;-91
2022/01/23 05:16:04;;;;;;;59.70;27.67;;;;;;;;;;5053975;28;20021;-91
2022/01/23 05:18:32;;;;;;;57.47;28.03;;;;;;;;;;5053805;28;20598;-91
2022/01/23 05:21:09;;;;;;;61.60;28.40;;;;;;;;;;5053646;28;20032;-91
2022/01/23 05:23:35;;;;;;;59.83;27.70;;;;;;;;;;5053726;28;20025;-91
2022/01/23 05:26:00;;;;;;;58.37;26.90;;;;;;;;;;5053656;28;20502;-90
2022/01/23 05:28:25;;;;;;;58.97;28.73;;;;;;;;;;5053491;28;20025;-90
2022/01/23 05:30:50;;;;;;;53.33;26.23;;;;;;;;;;5053586;28;20055;-91
2022/01/23 05:33:16;;;;;;;54.23;25.87;;;;;;;;;;5053648;28;20017;-91
2022/01/23 05:35:41;;;;;;;57.77;26.83;;;;;;;;;;5053546;28;20025;-91
2022/01/23 05:38:06;;;;;;;62.67;27.47;;;;;;;;;;5053372;28;20021;-90
2022/01/23 05:40:32;;;;;;;58.47;28.83;;;;;;;;;;5053490;28;20024;-90
2022/01/23 05:42:57;;;;;;;61.43;28.40;;;;;;;;;;5053298;28;20024;-91
2022/01/23 05:45:22;;;;;;;63.77;27.37;;;;;;;;;;5053227;28;20431;-90
2022/01/23 05:47:48;;;;;;;57.03;27.33;;;;;;;;;;5053078;28;20021;-90
2022/01/23 05:50:13;;;;;;;58.67;28.00;;;;;;;;;;5053212;28;20016;-91
2022/01/23 05:52:38;;;;;;;56.50;26.00;;;;;;;;;;5053243;28;20025;-91
2022/01/23 05:55:04;;;;;;;53.27;26.53;;;;;;;;;;5053171;28;20044;-91
2022/01/23 05:57:29;;;;;;;52.20;25.57;;;;;;;;;;5053189;28;20017;-90
2022/01/23 05:59:55;;;;;;;62.97;28.43;;;;;;;;;;5053252;28;20603;-91
2022/01/23 06:02:20;;;;;;;63.77;29.80;;;;;;;;;;5053134;28;20025;-90
2022/01/23 06:04:45;;;;;;;54.03;27.03;;;;;;;;;;5053058;28;20059;-90
2022/01/23 06:07:10;;;;;;;63.40;29.03;;;;;;;;;;5053041;28;20497;-91
2022/01/23 06:09:38;;;;;;;64.80;28.73;;;;;;;;;;5053023;28;20025;-90
2022/01/23 06:12:03;;;;;;;69.37;29.27;;;;;;;;;;5069644;28;20056;-91
2022/01/23 06:14:29;;;;;;;61.60;26.37;;;;;;;;;;5052813;28;20064;-91
2022/01/23 06:16:54;;;;;;;63.33;26.07;;;;;;;;;;5052930;28;20021;-91
2022/01/23 06:19:19;;;;;;;58.30;26.20;;;;;;;;;;5052808;28;20047;-91
2022/01/23 06:21:44;;;;;;;59.10;28.57;;;;;;;;;;5055347;28;20416;-91
2022/01/23 06:24:15;;;;;;;57.73;27.83;;;;;;;;;;5056964;28;20476;-90
2022/01/23 06:26:44;;;;;;;63.07;28.40;;;;;;;;;;5057055;28;20036;-91
2022/01/23 06:29:10;;;;;;;58.10;27.97;;;;;;;;;;5056885;28;20031;-90
2022/01/23 06:31:36;;;;;;;61.40;28.43;;;;;;;;;;5056895;28;20028;-91
2022/01/23 06:34:02;;;;;;;61.60;28.20;;;;;;;;;;5057267;28;20140;-90
2022/01/23 06:36:27;;;;;;;62.23;28.23;;;;;;;;;;5056837;28;20469;-91
2022/01/23 06:38:52;;;;;;;70.27;28.57;;;;;;;;;;5056772;28;20083;-91
2022/01/23 06:41:17;;;;;;;59.80;29.20;;;;;;;;;;5056704;28;20086;-91
2022/01/23 06:43:43;;;;;;;59.70;26.57;;;;;;;;;;5056746;28;20078;-90
2022/01/23 06:46:08;;;;;;;56.17;26.13;;;;;;;;;;5056512;28;20033;-91
2022/01/23 06:48:33;;;;;;;56.30;26.30;;;;;;;;;;5056647;28;20380;-90
2022/01/23 06:50:58;;;;;;;69.63;29.80;;;;;;;;;;5056524;28;20028;-91
2022/01/23 06:53:24;;;;;;;61.90;28.57;;;;;;;;;;5056457;28;20435;-91
2022/01/23 06:55:49;;;;;;;55.37;25.73;;;;;;;;;;5056526;28;20024;-91
2022/01/23 06:58:14;;;;;;;57.77;26.77;;;;;;;;;;5056484;28;20017;-90
2022/01/23 07:00:39;;;;;;;57.87;27.73;;;;;;;;;;5056421;28;20040;-91
2022/01/23 07:03:05;;;;;;;55.83;27.33;;;;;;;;;;5056225;28;20028;-91
2022/01/23 07:05:30;;;;;;;63.23;28.47;;;;;;;;;;5056304;28;20114;-91
2022/01/23 07:07:55;;;;;;;54.87;26.13;;;;;;;;;;5056130;28;20017;-91
2022/01/23 07:10:21;;;;;;;48.23;23.70;;;;;;;;;;5056252;28;20021;-91
2022/01/23 07:12:46;;;;;;;56.40;27.20;;;;;;;;;;5056186;28;20087;-91
2022/01/23 07:15:12;;;;;;;65.30;28.93;;;;;;;;;;5056116;28;20048;-91
2022/01/23 07:17:40;;;;;;;61.80;27.70;;;;;;;;;;5055970;28;20021;-91
2022/01/23 07:20:06;;;;;;;61.23;27.00;;;;;;;;;;5055966;28;20072;-91
2022/01/23 07:22:31;;;;;;;57.87;27.73;;;;;;;;;;5055899;28;20021;-90
2022/01/23 07:25:00;;;;;;;61.50;28.73;;;;;;;;;;5055885;28;20553;-91
2022/01/23 07:27:28;;;;;;;59.10;28.07;;;;;;;;;;5055897;28;20021;-91
2022/01/23 07:29:54;;;;;;;56.23;25.97;;;;;;;;;;5056939;28;20021;-91
2022/01/23 07:32:19;;;;;;;55.57;27.07;;;;;;;;;;5055856;28;20533;-91
2022/01/23 07:34:44;;;;;;;64.27;28.63;;;;;;;;;;5055742;28;20028;-91
2022/01/23 07:37:12;;;;;;;62.37;29.53;;;;;;;;;;5055712;28;20020;-91
2022/01/23 07:39:37;;;;;;;59.77;28.23;;;;;;;;;;5055760;28;20021;-91
2022/01/23 07:42:03;;;;;;;68.60;30.00;;;;;;;;;;5061078;28;20027;-90
2022/01/23 07:44:28;;;;;;;62.03;28.33;;;;;;;;;;5067414;28;20029;-91
2022/01/23 07:46:54;;;;;;;60.03;27.10;;;;;;;;;;5060881;28;20459;-91
2022/01/23 07:49:19;;;;;;;57.10;26.73;;;;;;;;;;5058171;28;20043;-91
2022/01/23 07:51:44;;;;;;;56.47;27.17;;;;;;;;;;5058001;28;20065;-92
2022/01/23 07:54:10;;;;;;;64.23;27.97;;;;;;;;;;5057771;28;20457;-92
2022/01/23 07:56:37;;;;;;;68.40;30.10;;;;;;;;;;5056617;28;20532;-92
2022/01/23 07:59:02;;;;;;;60.43;29.10;;;;;;;;;;5056548;28;20021;-93
2022/01/23 08:01:30;;;;;;;57.03;27.40;;;;;;;;;;5057818;28;20028;-92
2022/01/23 08:03:55;;;;;;;67.63;31.00;;;;;;;;;;5072678;28;20052;-92
2022/01/23 08:06:21;;;;;;;68.03;31.40;;;;;;;;;;5075032;28;20024;-92
2022/01/23 08:08:48;;;;;;;71.40;29.67;;;;;;;;;;5075161;28;20028;-92
2022/01/23 08:11:13;;;;;;;66.83;30.43;;;;;;;;;;5075149;28;20021;-92
2022/01/23 08:13:38;;;;;;;70.17;29.47;;;;;;;;;;5074769;28;20027;-92
2022/01/23 08:16:03;;;;;;;67.23;30.53;;;;;;;;;;5075012;28;20024;-92
2022/01/23 08:18:29;;;;;;;66.80;28.40;;;;;;;;;;5075406;28;20024;-92
2022/01/23 08:20:54;;;;;;;65.97;29.27;;;;;;;;;;5074917;28;20028;-92
2022/01/23 08:23:20;;;;;;;63.57;28.17;;;;;;;;;;5074783;28;20039;-92
2022/01/23 08:25:46;;;;;;;72.70;30.63;;;;;;;;;;5074867;28;20067;-92
2022/01/23 08:28:11;;;;;;;65.03;29.20;;;;;;;;;;5074752;28;20044;-92
2022/01/23 08:30:36;;;;;;;62.50;27.97;;;;;;;;;;5074752;28;20417;-92
2022/01/23 08:33:02;;;;;;;54.70;25.73;;;;;;;;;;5074889;28;20023;-92
2022/01/23 08:35:28;;;;;;;63.17;26.67;;;;;;;;;;5074729;28;20158;-92
2022/01/23 08:37:53;;;;;;;60.93;27.77;;;;;;;;;;5074490;28;20023;-93
2022/01/23 08:40:23;;;;;;;61.37;29.03;;;;;;;;;;5074849;28;20384;-93
2022/01/23 08:42:48;;;;;;;62.40;28.40;;;;;;;;;;5074683;28;20111;-92
2022/01/23 08:45:14;;;;;;;63.03;30.40;;;;;;;;;;5073855;28;20056;-92
2022/01/23 08:47:39;;;;;;;68.47;29.60;;;;;;;;;;5074510;28;20009;-92
2022/01/23 08:50:05;;;;;;;70.27;29.87;;;;;;;;;;5074466;28;20063;-92
2022/01/23 08:52:30;;;;;;;72.47;30.63;;;;;;;;;;5062872;28;20088;-92
2022/01/23 08:54:56;;;;;;;66.20;29.13;;;;;;;;;;5068698;28;20027;-93
2022/01/23 08:57:22;;;;;;;61.63;29.70;;;;;;;;;;5064795;28;20044;-93
2022/01/23 08:59:48;;;;;;;67.60;30.00;;;;;;;;;;5074420;28;20032;-92
2022/01/23 09:02:13;;;;;;;67.27;30.73;;;;;;;;;;5073867;28;20028;-92
2022/01/23 09:04:39;;;;;;;67.33;31.17;;;;;;;;;;5074364;28;20111;-92
2022/01/23 09:07:04;;;;;;;68.87;29.57;;;;;;;;;;5074164;28;20029;-92
2022/01/23 09:09:31;;;;;;;74.30;33.73;;;;;;;;;;5073607;28;20028;-92
2022/01/23 09:14:23;;;;;;;68.97;30.57;;;;;;;;;;5069133;28;20035;-93
2022/01/23 09:16:49;;;;;;;69.97;30.37;;;;;;;;;;5070369;28;20036;-93
2022/01/23 09:19:14;;;;;;;61.57;28.97;;;;;;;;;;5073739;28;20419;-94
2022/01/23 09:21:41;;;;;;;65.67;29.53;;;;;;;;;;5073755;28;20031;-93
2022/01/23 09:24:06;;;;;;;67.13;30.70;;;;;;;;;;5073658;28;20115;-93
2022/01/23 09:26:33;;;;;;;69.50;30.80;;;;;;;;;;5073761;28;20064;-93
2022/01/23 09:29:01;;;;;;;66.73;30.20;;;;;;;;;;5073668;28;20032;-93
2022/01/23 09:31:46;;;;;;;62.23;28.23;;;;;;;;;;5073769;28;20024;-93
2022/01/23 09:34:11;;;;;;;69.27;30.23;;;;;;;;;;5073671;28;20020;-93
2022/01/23 09:36:36;;;;;;;63.30;31.13;;;;;;;;;;5073620;28;20170;-94
2022/01/23 09:39:02;;;;;;;71.63;33.20;;;;;;;;;;5073497;28;20021;-94
2022/01/23 09:41:29;;;;;;;71.87;31.50;;;;;;;;;;5073485;28;20032;-93
2022/01/23 09:43:55;;;;;;;70.23;33.90;;;;;;;;;;5073538;28;20020;-93
2022/01/23 09:46:22;;;;;;;70.80;32.70;;;;;;;;;;5073389;28;20434;-93
2022/01/23 09:48:48;;;;;;;75.77;32.77;;;;;;;;;;5073259;28;20025;-93
2022/01/23 09:51:13;;;;;;;67.13;29.60;;;;;;;;;;5073405;28;20016;-93
2022/01/23 09:53:40;;;;;;;70.83;31.13;;;;;;;;;;5073293;28;20031;-93
2022/01/23 09:56:06;;;;;;;70.60;30.90;;;;;;;;;;5072887;28;20524;-93
2022/01/23 09:58:32;;;;;;;70.50;31.77;;;;;;;;;;5073280;28;20070;-94
2022/01/23 10:00:58;;;;;;;69.23;29.20;;;;;;;;;;5073469;28;20418;-93
2022/01/23 10:03:23;;;;;;;66.63;30.90;;;;;;;;;;5073214;28;20025;-92
2022/01/23 10:05:52;;;;;;;72.80;33.77;;;;;;;;;;5073323;28;20051;-93
2022/01/23 10:08:18;;;;;;;65.77;29.57;;;;;;;;;;5073171;28;20460;-93
2022/01/23 10:10:50;;;;;;;66.23;29.07;;;;;;;;;;5073219;28;20357;-93
2022/01/23 10:13:16;;;;;;;73.20;33.50;;;;;;;;;;5073254;28;20388;-93
2022/01/23 10:15:41;;;;;;;67.17;30.67;;;;;;;;;;5073114;28;20017;-93
2022/01/23 10:18:06;;;;;;;73.77;31.27;;;;;;;;;;5073103;28;20021;-93
2022/01/23 10:20:31;;;;;;;75.63;31.20;;;;;;;;;;5072963;28;20024;-93
2022/01/23 10:22:58;;;;;;;72.73;29.87;;;;;;;;;;5073198;28;20107;-93
2022/01/23 10:25:25;;;;;;;71.50;30.43;;;;;;;;;;5072979;28;20428;-93
2022/01/23 10:27:54;;;;;;;69.60;31.67;;;;;;;;;;5072910;28;20028;-93
2022/01/23 10:30:20;;;;;;;65.47;30.07;;;;;;;;;;5072900;28;20033;-93
2022/01/23 10:32:59;;;;;;;71.67;30.53;;;;;;;;;;5072922;28;20020;-92
2022/01/23 10:35:24;;;;;;;73.53;32.10;;;;;;;;;;5072963;28;20057;-93
2022/01/23 10:37:52;;;;;;;73.70;28.37;;;;;;;;;;5073012;28;20044;-93
2022/01/23 10:40:31;;;;;;;68.63;28.87;;;;;;;;;;5072993;28;20468;-93
2022/01/23 10:48:35;;;;;;;69.93;30.17;;;;;;;;;;5073902;28;20059;-93
2022/01/23 10:50:52;;;;;;;66.63;29.53;;;;;;;;;;5073441;28;20037;-93
2022/01/23 10:53:18;;;;;;;70.40;29.60;;;;;;;;;;5072834;28;20025;-93
2022/01/23 10:55:44;;;;;;;65.23;29.37;;;;;;;;;;5072607;28;20029;-93
2022/01/23 10:58:21;;;;;;;67.10;29.47;;;;;;;;;;5072892;28;20036;-93
2022/01/23 11:00:46;;;;;;;69.97;31.43;;;;;;;;;;5072644;28;20024;-92
2022/01/23 11:03:15;;;;;;;69.90;31.17;;;;;;;;;;5072670;28;20107;-93
2022/01/23 11:05:41;;;;;;;66.93;29.87;;;;;;;;;;5072580;28;20377;-93
2022/01/23 11:08:23;;;;;;;74.07;32.37;;;;;;;;;;5075305;28;20027;-93
2022/01/23 11:10:55;;;;;;;76.53;30.60;;;;;;;;;;5075895;28;20029;-93
2022/01/23 11:19:19;;;;;;;67.03;29.58;;;;;;;;;;5077255;28;20070;-93
2022/01/23 11:21:44;;;;;;;71.90;31.23;;;;;;;;;;5076367;28;20020;-93
2022/01/23 11:24:11;;;;;;;63.90;31.07;;;;;;;;;;5076131;28;20099;-93
2022/01/23 11:26:36;;;;;;;68.53;29.40;;;;;;;;;;5076071;28;20055;-93
2022/01/23 11:29:13;;;;;;;64.23;30.17;;;;;;;;;;5075913;28;20056;-93
2022/01/23 11:31:40;;;;;;;68.23;30.07;;;;;;;;;;5075846;28;20472;-93
2022/01/23 11:34:08;;;;;;;73.50;32.00;;;;;;;;;;5075882;28;20024;-94
2022/01/23 11:36:34;;;;;;;72.13;32.00;;;;;;;;;;5075883;28;20016;-94
2022/01/23 11:39:08;;;;;;;72.00;31.07;;;;;;;;;;5075781;28;20028;-93
2022/01/23 11:55:30;;;;;;;70.53;30.70;;;;;;;;;;5077160;28;20036;-93
2022/01/23 11:57:55;;;;;;;69.88;30.02;;;;;;;;;;5075506;28;20040;-94
2022/01/23 12:00:27;;;;;;;63.27;29.57;;;;;;;;;;5075555;28;20384;-94
2022/01/23 12:03:12;;;;;;;64.87;29.50;;;;;;;;;;5075390;28;20024;-93
2022/01/23 12:05:39;;;;;;;65.13;28.50;;;;;;;;;;5075330;28;20016;-94
2022/01/23 12:08:13;;;;;;;72.10;28.83;;;;;;;;;;5075154;28;20021;-94
2022/01/23 12:11:04;;;;;;;64.87;28.13;;;;;;;;;;5075234;28;20024;-94
2022/01/23 12:18:50;;;;;;;65.07;29.23;;;;;;;;;;5075531;28;20024;-95
2022/01/23 12:21:31;;;;;;;66.10;27.93;;;;;;;;;;5075069;28;20029;-94
2022/01/23 12:23:57;;;;;;;71.27;32.50;;;;;;;;;;5074989;28;20104;-93
2022/01/23 12:26:22;;;;;;;68.03;30.67;;;;;;;;;;5074941;28;20432;-94
2022/01/23 12:28:47;;;;;;;67.70;30.47;;;;;;;;;;5074744;28;20056;-94
2022/01/23 12:31:12;;;;;;;65.70;29.90;;;;;;;;;;5074848;28;20044;-94
2022/01/23 12:33:41;;;;;;;65.13;28.80;;;;;;;;;;5074686;28;20051;-94
2022/01/23 12:36:07;;;;;;;67.70;29.13;;;;;;;;;;5074686;28;20016;-93
2022/01/23 12:38:38;;;;;;;67.80;30.93;;;;;;;;;;5074706;28;20017;-93
2022/01/23 12:41:23;;;;;;;67.73;29.20;;;;;;;;;;5074561;28;20043;-95
2022/01/23 12:43:53;;;;;;;60.33;27.03;;;;;;;;;;5074553;28;20017;-94
2022/01/23 12:46:26;;;;;;;70.17;30.07;;;;;;;;;;5074689;28;20058;-94
2022/01/23 12:48:51;;;;;;;67.80;29.60;;;;;;;;;;5074480;28;20028;-93
2022/01/23 12:51:19;;;;;;;70.83;30.70;;;;;;;;;;5074372;28;20020;-94
2022/01/23 12:53:48;;;;;;;73.93;29.70;;;;;;;;;;5074274;28;20024;-94
2022/01/23 12:56:21;;;;;;;69.50;30.70;;;;;;;;;;5074350;28;20029;-95
2022/01/23 12:58:46;;;;;;;;;;;;;;;;;;5074655;28;20017;-94
2022/01/23 13:01:11;;;;;;;;;;;;;;;;;;5074594;28;19911;-93
2022/01/23 13:03:38;;;;;;;;;;;;;;;;;;5074662;28;19905;-94
2022/01/23 13:06:06;;;;;;;;;;;;;;;;;;5074490;28;19904;-94
2022/01/23 13:08:35;;;;;;;;;;;;;;;;;;5074490;28;19908;-94
2022/01/23 13:13:38;;;;;;;;;;;;;;;;;;5075941;28;19991;-94
2022/01/23 13:16:20;;;;;;;;;;;;;;;;;;5074482;28;19912;-94
2022/01/23 13:19:13;;;;;;;;;;;;;;;;;;5074193;28;20050;-94
2022/01/23 13:32:25;;;;;;;;;;;;;;;;;;5075199;28;19911;-94
2022/01/23 13:34:50;;;;;;;;;;;;;;;;;;5074088;28;19999;-95
2022/01/23 13:37:15;;;;;;;;;;;;;;;;;;5073999;28;19962;-95
2022/01/23 13:39:46;;;;;;;;;;;;;;;;;;5073850;28;19959;-94
2022/01/23 13:42:42;;;;;;;;;;;;;;;;;;5074052;28;19909;-93
2022/01/23 13:48:02;;;;;;;;;;;;;;;;;;5075130;28;19997;-94
2022/01/23 13:51:14;;;;;;;;;;;;;;;;;;5074491;28;20273;-94
2022/01/23 13:53:25;;;;;;;;;;;;;;;;;;5074669;28;19943;-94
2022/01/23 14:00:59;;;;;;;;;;;;;;;;;;5075081;28;19908;-94
2022/01/23 14:03:24;;;;;;;;;;;;;;;;;;5073734;28;19905;-94
2022/01/23 14:05:49;;;;;;;;;;;;;;;;;;5073441;28;19908;-94
2022/01/23 14:08:14;;;;;;;;;;;;;;;;;;5073714;28;19965;-94
2022/01/23 14:10:40;;;;;;;;;;;;;;;;;;5073569;28;19904;-93
2022/01/23 14:13:05;;;;;;;;;;;;;;;;;;5073513;28;19911;-94
2022/01/23 14:15:30;;;;;;;;;;;;;;;;;;5073561;28;19908;-94
2022/01/23 14:17:55;;;;;;;;;;;;;;;;;;5073578;28;20339;-94
2022/01/23 14:20:20;;;;;;;;;;;;;;;;;;5073381;28;19912;-94
2022/01/23 14:22:45;;;;;;;;;;;;;;;;;;5073390;28;19911;-94
2022/01/23 14:25:10;;;;;;;;;;;;;;;;;;5073391;28;20003;-95
2022/01/23 14:27:35;;;;;;;;;;;;;;;;;;5073453;28;19962;-95
2022/01/23 14:30:00;;;;;;;;;;;;;;;;;;5073437;28;20007;-95
2022/01/23 14:32:33;;;;;;;;;;;;;;;;;;5073274;28;19983;-94
2022/01/23 14:34:58;;;;;;;;;;;;;;;;;;5073500;28;20002;-94
2022/01/23 14:37:23;;;;;;;;;;;;;;;;;;5073387;28;19951;-94
2022/01/23 14:39:48;;;;;;;;;;;;;;;;;;5073324;28;20364;-94
2022/01/23 14:42:14;;;;;;;;;;;;;;;;;;5074779;28;19958;-94
2022/01/23 14:44:39;;;;;;;;;;;;;;;;;;5077291;28;19954;-94
2022/01/23 14:47:04;;;;;;;;;;;;;;;;;;5077277;28;19904;-95
2022/01/23 14:49:31;;;;;;;;;;;;;;;;;;5077083;28;20485;-94
2022/01/23 14:51:57;;;;;;;;;;;;;;;;;;5077123;28;20038;-94
2022/01/23 14:54:22;;;;;;;;;;;;;;;;;;5077102;28;19954;-95
2022/01/23 14:56:47;;;;;;;;;;;;;;;;;;5077026;28;20061;-94
2022/01/23 14:59:12;;;;;;;;;;;;;;;;;;5076965;28;20369;-95
2022/01/23 15:01:37;;;;;;;;;;;;;;;;;;5076958;28;20003;-94
2022/01/23 15:04:04;;;;;;;;;;;;;;;;;;5076767;28;20003;-94
2022/01/23 15:06:29;;;;;;;;;;;;;;;;;;5076886;28;19974;-94
2022/01/23 15:08:54;;;;;;;;;;;;;;;;;;5076836;28;20349;-94
2022/01/23 15:11:19;;;;;;;;;;;;;;;;;;5076754;28;20310;-94
2022/01/23 15:13:45;;;;;;;;;;;;;;;;;;5076703;28;19971;-94
2022/01/23 15:16:12;;;;;;;;;;;;;;;;;;5076692;28;20291;-94
2022/01/23 15:18:37;;;;;;;;;;;;;;;;;;5076602;28;19908;-94
2022/01/23 15:21:02;;;;;;;;;;;;;;;;;;5076396;28;19912;-94
2022/01/23 15:23:27;;;;;;;;;;;;;;;;;;5076595;28;19904;-94
2022/01/23 15:25:53;;;;;;;;;;;;;;;;;;5076501;28;20284;-94
2022/01/23 15:28:18;;;;;;;;;;;;;;;;;;5076300;28;19916;-95
2022/01/23 15:30:44;;;;;;;;;;;;;;;;;;5076367;28;19917;-94
2022/01/23 15:33:09;;;;;;;;;;;;;;;;;;5076341;28;19915;-94
2022/01/23 15:35:34;;;;;;;;;;;;;;;;;;5076329;28;19911;-94
2022/01/23 15:37:59;;;;;;;;;;;;;;;;;;5076269;28;19908;-94
2022/01/23 15:40:24;;;;;;;;;;;;;;;;;;5076277;28;19934;-94
2022/01/23 15:42:50;;;;;;;;;;;;;;;;;;5076134;28;19931;-94
2022/01/23 15:45:15;;;;;;;;;;;;;;;;;;5076137;28;20342;-94
2022/01/23 15:47:40;;;;;;;;;;;;;;;;;;5076039;28;19904;-94
2022/01/23 15:50:07;;;;;;;;;;;;;;;;;;5076016;28;19917;-95
2022/01/23 15:52:32;;;;;;;;;;;;;;;;;;5075810;28;19958;-94
2022/01/23 15:54:57;;;;;;;;;;;;;;;;;;5074791;28;19954;-94
2022/01/23 15:57:22;;;;;;;;;;;;;;;;;;5075921;28;19948;-94
2022/01/23 15:59:47;;;;;;;;;;;;;;;;;;5076019;28;19990;-94
2022/01/23 16:02:12;;;;;;;;;;;;;;;;;;5075867;28;20016;-94
2022/01/23 16:04:38;;;;;;;;;;;;;;;;;;5075734;28;20486;-95
2022/01/23 16:07:03;;;;;;;;;;;;;;;;;;5075803;28;19951;-94
2022/01/23 16:09:28;;;;;;;;;;;;;;;;;;5075679;28;19948;-95
2022/01/23 16:11:53;;;;;;;;;;;;;;;;;;5075636;28;20352;-94
2022/01/23 16:14:20;;;;;;;;;;;;;;;;;;5075493;28;20462;-94
2022/01/23 16:16:45;;;;;;;;;;;;;;;;;;5075483;28;20253;-94
2022/01/23 16:19:10;;;;;;;;;;;;;;;;;;5075477;28;20325;-94
2022/01/23 16:21:36;;;;;;;;;;;;;;;;;;5075435;28;19912;-95
2022/01/23 16:24:01;;;;;;;;;;;;;;;;;;5075438;28;19909;-94
2022/01/23 16:26:26;;;;;;;;;;;;;;;;;;5075435;28;20378;-94
2022/01/23 16:28:52;;;;;;;;;;;;;;;;;;5075269;28;19958;-94
2022/01/23 16:31:17;;;;;;;;;;;;;;;;;;5075296;28;20368;-94
2022/01/23 16:33:42;;;;;;;;;;;;;;;;;;5075199;28;19904;-94
2022/01/23 16:36:07;;;;;;;;;;;;;;;;;;5075180;28;19905;-94
2022/01/23 16:38:32;;;;;;;;;;;;;;;;;;5075202;28;20287;-94
2022/01/23 16:40:57;;;;;;;;;;;;;;;;;;5075023;28;19995;-94
2022/01/23 16:43:23;;;;;;;;;;;;;;;;;;5075107;28;19904;-93
2022/01/23 16:45:48;;;;;;;;;;;;;;;;;;5074904;28;20260;-93
2022/01/23 16:48:13;;;;;;;;;;;;;;;;;;5074847;28;19912;-94
2022/01/23 16:50:39;;;;;;;;;;;;;;;;;;5075034;28;19932;-94
2022/01/23 16:53:04;;;;;;;;;;;;;;;;;;5074931;28;19916;-95
2022/01/23 16:55:29;;;;;;;;;;;;;;;;;;5074749;28;19915;-94
2022/01/23 16:57:54;;;;;;;;;;;;;;;;;;5074863;28;19904;-94
2022/01/23 17:00:19;;;;;;;;;;;;;;;;;;5074624;28;19911;-94
2022/01/23 17:02:46;;;;;;;;;;;;;;;;;;5074543;28;19911;-94
2022/01/23 17:05:11;;;;;;;;;;;;;;;;;;5074237;28;19905;-94
2022/01/23 17:07:36;;;;;;;;;;;;;;;;;;5074615;28;20332;-94
2022/01/23 17:10:01;;;;;;;;;;;;;;;;;;5074316;28;20417;-94
2022/01/23 17:12:26;;;;;;;;;;;;;;;;;;5074424;28;19912;-94
2022/01/23 17:14:52;;;;;;;;;;;;;;;;;;5074393;28;19904;-94
2022/01/23 17:17:17;;;;;;;;;;;;;;;;;;5074368;28;20348;-94
2022/01/23 17:19:42;;;;;;;;;;;;;;;;;;5074153;28;19920;-95
2022/01/23 17:22:07;;;;;;;;;;;;;;;;;;5074266;28;19904;-94
2022/01/23 17:24:36;;;;;;;;;;;;;;;;;;5074282;28;19904;-94
2022/01/23 17:27:01;;;;;;;;;;;;;;;;;;5074163;28;19905;-94
2022/01/23 17:29:26;;;;;;;;;;;;;;;;;;5074104;28;20007;-93
2022/01/23 17:31:52;;;;;;;;;;;;;;;;;;5074044;28;19912;-94
2022/01/23 17:34:19;;;;;;;;;;;;;;;;;;5074010;28;19904;-95
2022/01/23 17:36:44;;;;;;;;;;;;;;;;;;5074066;28;19908;-94
2022/01/23 17:39:09;;;;;;;;;;;;;;;;;;5074030;28;19905;-94
2022/01/23 17:41:34;;;;;;;;;;;;;;;;;;5073887;28;19911;-93
2022/01/23 17:43:59;;;;;;;;;;;;;;;;;;5073864;28;20318;-94
2022/01/23 17:46:26;;;;;;;;;;;;;;;;;;5073988;28;20378;-95
2022/01/23 17:49:04;;;;;;;;;;;;;;;;;;5073836;28;19908;-94
2022/01/23 17:51:29;;;;;;;;;;;;;;;;;;5074186;28;19909;-94
2022/01/23 17:53:54;;;;;;;;;;;;;;;;;;5073749;28;19905;-95
2022/01/23 17:56:20;;;;;;;;;;;;;;;;;;5073668;28;19999;-94
2022/01/23 17:58:45;;;;;;;;;;;;;;;;;;5073786;28;19943;-94
2022/01/23 18:01:11;;;;;;;;;;;;;;;;;;5073734;28;19912;-94
2022/01/23 18:03:36;;;;;;;;;;;;;;;;;;5073833;28;19905;-94
2022/01/23 18:06:02;;;;;;;;;;;;;;;;;;5073656;28;19926;-94
2022/01/23 18:08:27;;;;;;;;;;;;;;;;;;5073602;28;19954;-94
2022/01/23 18:10:52;;;;;;;;;;;;;;;;;;5073688;28;19956;-94
2022/01/23 18:13:22;;;;;;;;;;;;;;;;;;5073648;28;19943;-93
2022/01/23 18:15:47;;;;;;;;;;;;;;;;;;5073426;28;19911;-95